Flight Briefing for CPX108

Departure Arrival
Seattle-Tacoma International Airport (KSEA)
Click to view FAA NOTAMS
Daniel K Inouye International Airport (PHNL)
Click to view FAA NOTAMS
Departure Time Arrival Time
N/A N/A
Aircraft Distance
B747-400BCF 2329nm
Departure METAR Arrival METAR
KSEA 181553Z 03013KT 10SM CLR 10/01 A3020 RMK AO2 SLP232 T01000011 PHNL 181553Z 32004KT 10SM FEW035 18/13 A3004 RMK AO2 SLP170 T01830133
Suggested Route
HAROB6 HQM SEDAR FOZZI HEKAB A332 HALLI BOARD R464 BITTA MAGGI3


View recent IFR Routes data
Notes



Charts and Procedures

Charts for KSEA
No chart available
Charts for PHNL
No chart available

Windy.com Weather Map